Jackson County Reynolds Field Jackson US
ICAO: KJXN
IATA: JXN
Category: Medium
Scheduled Services: No

Elevation: 1001 ft
TransAlt. 18000 ft.

Airport Communications:
LANSING APP/DEP:127.3
ATIS:125.725
CTAF:120.7
GND/CLNC DEL:121.9
LANSING RDO:122.2
TWR:120.7
UNICOM:122.95

KJXN Zoom In..

Runways:

(A) RW 06 length 5349 ft width 150 ft
---- / hdg 56

(B) RW 14 length 4000 ft width 100 ft
---- / hdg 138

(C) RW 24 length 5349 ft width 150 ft
ILS 109.10 / hdg 236

(D) RW 32 length 4000 ft width 100 ft
---- / hdg 318

Location; KJXN
Day. 15 / Time. 21.56 Zulu
* Altimeter: 29.95
* Temperature: 33° c. 91.4°f.
* Wind from: VRB° Speed 03 kn.
Dewpoint: 21° c.
Visibility: 10 Statute Miles.
Clouds: Clear (automated report).

KJXN 152156Z VRB03KT 10SM CLR 33/21 A2995 RMK AO2 SLP134 T03280211


Wind From VRB°
Speed 03 kn.

 
 
jpsmedia.com for Web Design worldairports.se 2018   terms of use